Time;durP1;ratioP1;P1;durP2;ratioP2;P2;SDS_P1;SDS_P2;PMS_P1;PMS_P2;Temp;Humidity;BMP_temperature;BMP_pressure;BME280_temperature;BME280_humidity;BME280_pressure;Samples;Min_cycle;Max_cycle;Signal;HPM_P1;HPM_P2
2023/08/07 00:00:41;;;;;;;3.13;0.90;;;;;;;;;;6260328;28;20222;-64
2023/08/07 00:03:42;;;;;;;1.03;0.43;;;;;;;;;;6249626;28;20191;-64
2023/08/07 00:06:43;;;;;;;0.83;0.60;;;;;;;;;;6250490;28;20218;-64
2023/08/07 00:09:44;;;;;;;2.80;0.43;;;;;;;;;;6252974;28;20220;-64
2023/08/07 00:12:46;;;;;;;2.50;0.60;;;;;;;;;;6253913;28;20185;-64
2023/08/07 00:15:47;;;;;;;3.93;0.60;;;;;;;;;;6257350;28;20197;-64
2023/08/07 00:18:48;;;;;;;0.43;0.40;;;;;;;;;;6263739;28;20200;-64
2023/08/07 00:21:49;;;;;;;1.00;0.50;;;;;;;;;;6252944;28;20249;-64
2023/08/07 00:24:50;;;;;;;1.00;0.40;;;;;;;;;;6249099;28;20271;-64
2023/08/07 00:27:51;;;;;;;1.87;0.43;;;;;;;;;;6249106;28;20198;-64
2023/08/07 00:30:52;;;;;;;1.00;0.47;;;;;;;;;;6256020;28;20244;-64
2023/08/07 00:33:54;;;;;;;2.90;0.40;;;;;;;;;;6264662;28;20193;-65
2023/08/07 00:36:55;;;;;;;3.10;0.63;;;;;;;;;;6252757;28;20195;-64
2023/08/07 00:39:56;;;;;;;1.53;0.47;;;;;;;;;;6246946;28;20244;-64
2023/08/07 00:42:57;;;;;;;2.73;0.73;;;;;;;;;;6262419;28;20289;-64
2023/08/07 00:45:58;;;;;;;1.00;0.63;;;;;;;;;;6274403;28;20209;-64
2023/08/07 00:48:59;;;;;;;0.97;0.33;;;;;;;;;;6261916;28;20199;-64
2023/08/07 00:52:00;;;;;;;1.60;0.40;;;;;;;;;;6253799;28;20190;-64
2023/08/07 00:55:01;;;;;;;5.10;0.63;;;;;;;;;;6263757;28;20268;-64
2023/08/07 00:58:02;;;;;;;2.47;0.60;;;;;;;;;;6275176;28;20239;-64
2023/08/07 01:01:03;;;;;;;3.17;0.80;;;;;;;;;;6240684;28;20205;-64
2023/08/07 01:04:04;;;;;;;3.43;1.20;;;;;;;;;;6278819;28;20203;-64
2023/08/07 01:07:06;;;;;;;1.83;0.77;;;;;;;;;;6251724;28;20285;-64
2023/08/07 01:10:07;;;;;;;3.70;0.60;;;;;;;;;;6256159;28;20190;-65
2023/08/07 01:13:13;;;;;;;2.47;0.47;;;;;;;;;;6257541;28;20190;-65
2023/08/07 01:16:22;;;;;;;0.97;0.50;;;;;;;;;;6266267;28;20195;-65
2023/08/07 01:19:24;;;;;;;3.43;0.93;;;;;;;;;;6252014;28;20256;-65
2023/08/07 01:22:25;;;;;;;1.73;1.00;;;;;;;;;;6265575;28;20298;-65
2023/08/07 01:25:28;;;;;;;4.00;0.83;;;;;;;;;;6247774;28;20220;-65
2023/08/07 01:28:38;;;;;;;1.37;1.00;;;;;;;;;;6250536;28;20186;-65
2023/08/07 01:31:40;;;;;;;1.33;0.93;;;;;;;;;;6272833;28;20259;-65
2023/08/07 01:34:41;;;;;;;0.53;0.37;;;;;;;;;;6252901;28;20194;-65
2023/08/07 01:37:43;;;;;;;2.87;0.70;;;;;;;;;;6269252;28;20183;-65
2023/08/07 01:40:45;;;;;;;5.80;0.73;;;;;;;;;;6250585;28;20249;-66
2023/08/07 01:43:46;;;;;;;2.33;0.50;;;;;;;;;;6259934;28;20191;-64
2023/08/07 01:46:47;;;;;;;1.00;0.50;;;;;;;;;;6257278;28;20221;-64
2023/08/07 01:49:48;;;;;;;0.60;0.40;;;;;;;;;;6253468;28;20208;-64
2023/08/07 01:52:49;;;;;;;1.50;0.47;;;;;;;;;;6251490;28;20186;-64
2023/08/07 01:55:50;;;;;;;2.13;0.57;;;;;;;;;;6253432;28;20182;-65
2023/08/07 01:58:51;;;;;;;2.00;0.50;;;;;;;;;;6258109;28;20373;-64
2023/08/07 02:01:52;;;;;;;1.23;0.60;;;;;;;;;;6247902;28;20202;-64
2023/08/07 02:04:53;;;;;;;0.73;0.63;;;;;;;;;;6250740;28;20249;-64
2023/08/07 02:07:56;;;;;;;0.60;0.50;;;;;;;;;;6260969;28;20236;-64
2023/08/07 02:10:57;;;;;;;2.53;0.40;;;;;;;;;;6251646;28;20199;-64
2023/08/07 02:13:58;;;;;;;0.73;0.40;;;;;;;;;;6267428;28;20197;-64
2023/08/07 02:16:59;;;;;;;3.90;0.80;;;;;;;;;;6258357;28;20194;-64
2023/08/07 02:20:00;;;;;;;2.73;0.70;;;;;;;;;;6257866;28;20200;-64
2023/08/07 02:23:01;;;;;;;0.30;0.30;;;;;;;;;;6254896;28;20237;-64
2023/08/07 02:26:02;;;;;;;0.40;0.40;;;;;;;;;;6250971;28;20213;-64
2023/08/07 02:29:03;;;;;;;1.03;0.50;;;;;;;;;;6254672;28;20213;-64
2023/08/07 02:32:05;;;;;;;1.90;0.53;;;;;;;;;;6257043;28;20194;-64
2023/08/07 02:35:06;;;;;;;0.83;0.50;;;;;;;;;;6273969;28;20186;-64
2023/08/07 02:38:07;;;;;;;1.13;0.47;;;;;;;;;;6254526;28;20194;-64
2023/08/07 02:41:08;;;;;;;1.27;0.50;;;;;;;;;;6255738;28;20267;-64
2023/08/07 02:44:09;;;;;;;3.97;0.90;;;;;;;;;;6256445;28;20713;-64
2023/08/07 02:47:10;;;;;;;2.87;0.40;;;;;;;;;;6258585;28;20190;-64
2023/08/07 02:50:11;;;;;;;3.90;0.60;;;;;;;;;;6248614;28;20198;-64
2023/08/07 02:53:12;;;;;;;0.93;0.70;;;;;;;;;;6248830;28;20193;-64
2023/08/07 02:56:13;;;;;;;1.63;0.50;;;;;;;;;;6253994;28;20190;-64
2023/08/07 02:59:15;;;;;;;0.97;0.53;;;;;;;;;;6261857;28;20260;-64
2023/08/07 03:02:16;;;;;;;0.80;0.50;;;;;;;;;;6249999;28;20201;-64
2023/08/07 03:05:17;;;;;;;0.93;0.60;;;;;;;;;;6250196;28;20243;-64
2023/08/07 03:08:18;;;;;;;0.70;0.50;;;;;;;;;;6270856;28;20263;-64
2023/08/07 03:11:19;;;;;;;1.20;0.50;;;;;;;;;;6270629;28;20292;-64
2023/08/07 03:14:20;;;;;;;1.17;0.33;;;;;;;;;;6251597;28;20208;-64
2023/08/07 03:17:21;;;;;;;1.40;0.60;;;;;;;;;;6259697;28;20240;-64
2023/08/07 03:20:22;;;;;;;2.37;0.47;;;;;;;;;;6245906;28;20202;-64
2023/08/07 03:23:23;;;;;;;0.40;0.37;;;;;;;;;;6266694;28;20236;-64
2023/08/07 03:26:25;;;;;;;2.70;0.60;;;;;;;;;;6250633;28;20222;-64
2023/08/07 03:29:26;;;;;;;4.43;0.70;;;;;;;;;;6253546;28;20213;-64
2023/08/07 03:32:27;;;;;;;2.00;0.60;;;;;;;;;;6247359;28;20651;-64
2023/08/07 03:35:28;;;;;;;0.70;0.67;;;;;;;;;;6250749;28;20185;-64
2023/08/07 03:38:29;;;;;;;1.07;0.60;;;;;;;;;;6250740;28;20190;-64
2023/08/07 03:41:30;;;;;;;0.97;0.60;;;;;;;;;;6248875;28;20217;-64
2023/08/07 03:44:33;;;;;;;1.33;0.43;;;;;;;;;;6261898;28;20214;-64
2023/08/07 03:47:34;;;;;;;0.60;0.50;;;;;;;;;;6262801;28;20187;-65
2023/08/07 03:50:37;;;;;;;1.37;0.70;;;;;;;;;;6248243;28;20223;-64
2023/08/07 03:53:38;;;;;;;2.43;0.50;;;;;;;;;;6248069;28;20201;-64
2023/08/07 03:56:39;;;;;;;0.40;0.40;;;;;;;;;;6263456;28;20194;-64
2023/08/07 03:59:40;;;;;;;0.80;0.57;;;;;;;;;;6241226;28;20273;-64
2023/08/07 04:02:41;;;;;;;1.33;0.53;;;;;;;;;;6243016;28;20252;-64
2023/08/07 04:05:42;;;;;;;1.67;0.57;;;;;;;;;;6250118;28;20209;-64
2023/08/07 04:08:45;;;;;;;3.80;0.50;;;;;;;;;;6255310;28;20189;-64
2023/08/07 04:11:47;;;;;;;0.73;0.40;;;;;;;;;;6255283;28;20186;-64
2023/08/07 04:14:48;;;;;;;2.80;0.60;;;;;;;;;;6256575;28;20205;-64
2023/08/07 04:17:49;;;;;;;1.87;0.77;;;;;;;;;;6256013;28;20194;-64
2023/08/07 04:20:54;;;;;;;0.60;0.60;;;;;;;;;;6251149;28;20220;-64
2023/08/07 04:23:55;;;;;;;4.67;1.03;;;;;;;;;;6252908;28;20292;-64
2023/08/07 04:26:56;;;;;;;2.20;0.70;;;;;;;;;;6250140;28;20218;-64
2023/08/07 04:29:58;;;;;;;2.13;0.77;;;;;;;;;;6252085;28;20226;-64
2023/08/07 04:32:58;;;;;;;4.70;1.50;;;;;;;;;;6249577;28;20195;-64
2023/08/07 04:36:00;;;;;;;0.87;0.53;;;;;;;;;;6249584;28;20190;-64
2023/08/07 04:39:01;;;;;;;0.83;0.43;;;;;;;;;;6255277;28;20256;-64
2023/08/07 04:42:02;;;;;;;1.83;0.50;;;;;;;;;;6237906;28;20186;-64
2023/08/07 04:45:03;;;;;;;4.07;0.60;;;;;;;;;;6248210;28;20214;-64
2023/08/07 04:48:04;;;;;;;1.60;0.77;;;;;;;;;;6258856;28;20194;-65
2023/08/07 04:51:05;;;;;;;0.77;0.70;;;;;;;;;;6255281;28;20237;-63
2023/08/07 04:54:06;;;;;;;0.43;0.43;;;;;;;;;;6253074;28;20199;-63
2023/08/07 04:57:07;;;;;;;1.10;0.60;;;;;;;;;;6242847;28;20224;-63
2023/08/07 05:00:09;;;;;;;0.60;0.60;;;;;;;;;;6261663;28;20269;-63
2023/08/07 05:03:10;;;;;;;3.00;0.60;;;;;;;;;;6262352;28;20196;-63
2023/08/07 05:06:11;;;;;;;0.97;0.60;;;;;;;;;;6239402;28;20237;-63
2023/08/07 05:09:12;;;;;;;1.53;0.67;;;;;;;;;;6256454;28;20260;-64
2023/08/07 05:12:13;;;;;;;2.77;0.73;;;;;;;;;;6253858;28;20181;-63
2023/08/07 05:15:14;;;;;;;1.10;0.60;;;;;;;;;;6244279;28;20202;-63
2023/08/07 05:18:16;;;;;;;2.07;0.70;;;;;;;;;;6254978;28;20185;-63
2023/08/07 05:21:17;;;;;;;0.80;0.63;;;;;;;;;;6254243;28;20241;-64
2023/08/07 05:24:18;;;;;;;1.13;0.50;;;;;;;;;;6253372;28;20194;-62
2023/08/07 05:27:19;;;;;;;1.37;0.60;;;;;;;;;;6259572;28;20193;-62
2023/08/07 05:30:20;;;;;;;0.70;0.60;;;;;;;;;;6251960;28;20194;-63
2023/08/07 05:33:21;;;;;;;2.27;0.50;;;;;;;;;;6253452;28;20198;-63
2023/08/07 05:36:22;;;;;;;1.70;0.73;;;;;;;;;;6255276;28;20198;-63
2023/08/07 05:39:23;;;;;;;0.73;0.70;;;;;;;;;;6264620;28;20223;-63
2023/08/07 05:42:24;;;;;;;1.43;0.57;;;;;;;;;;6251877;28;20190;-63
2023/08/07 05:45:25;;;;;;;3.40;1.13;;;;;;;;;;6250644;28;20236;-63
2023/08/07 05:48:26;;;;;;;1.20;0.60;;;;;;;;;;6258998;28;20535;-63
2023/08/07 05:51:27;;;;;;;1.23;0.87;;;;;;;;;;6247803;28;20281;-63
2023/08/07 05:54:28;;;;;;;2.40;1.00;;;;;;;;;;6253492;28;20204;-63
2023/08/07 05:57:29;;;;;;;1.10;0.53;;;;;;;;;;6251034;28;20198;-63
2023/08/07 06:00:31;;;;;;;1.20;0.90;;;;;;;;;;6252511;28;20285;-63
2023/08/07 06:03:32;;;;;;;2.87;0.90;;;;;;;;;;6262935;28;20280;-63
2023/08/07 06:06:35;;;;;;;1.77;0.80;;;;;;;;;;6267710;28;20210;-62
2023/08/07 06:09:36;;;;;;;3.73;0.83;;;;;;;;;;6259225;28;20198;-62
2023/08/07 06:12:37;;;;;;;2.33;1.10;;;;;;;;;;6253703;28;20190;-63
2023/08/07 06:15:38;;;;;;;2.33;0.77;;;;;;;;;;6268991;28;20224;-63
2023/08/07 06:18:39;;;;;;;1.27;0.87;;;;;;;;;;6250880;28;20224;-63
2023/08/07 06:21:41;;;;;;;3.07;0.93;;;;;;;;;;6262733;28;20319;-63
2023/08/07 06:24:42;;;;;;;1.03;0.87;;;;;;;;;;6250914;28;20221;-63
2023/08/07 06:27:43;;;;;;;2.87;0.90;;;;;;;;;;6257357;28;20193;-63
2023/08/07 06:30:44;;;;;;;1.67;0.80;;;;;;;;;;6252224;28;20201;-63
2023/08/07 06:33:45;;;;;;;1.23;0.70;;;;;;;;;;6239837;28;20259;-64
2023/08/07 06:36:46;;;;;;;2.65;1.00;;;;;;;;;;6249225;28;20754;-64
2023/08/07 06:39:47;;;;;;;1.00;0.70;;;;;;;;;;6252073;28;20202;-64
2023/08/07 06:42:48;;;;;;;0.67;0.60;;;;;;;;;;6266259;28;20205;-63
2023/08/07 06:45:50;;;;;;;1.20;0.60;;;;;;;;;;6255585;28;20272;-65
2023/08/07 06:48:51;;;;;;;1.20;0.50;;;;;;;;;;6270247;28;20182;-65
2023/08/07 06:51:52;;;;;;;1.43;1.07;;;;;;;;;;6251343;28;20217;-65
2023/08/07 06:54:53;;;;;;;0.63;0.57;;;;;;;;;;6248624;28;20409;-64
2023/08/07 06:57:54;;;;;;;0.60;0.60;;;;;;;;;;6251726;28;20198;-63
2023/08/07 07:00:55;;;;;;;0.63;0.57;;;;;;;;;;6255109;28;20198;-64
2023/08/07 07:03:56;;;;;;;1.13;0.90;;;;;;;;;;6256147;28;20200;-65
2023/08/07 07:06:57;;;;;;;1.30;0.70;;;;;;;;;;6248152;28;20222;-65
2023/08/07 07:10:00;;;;;;;2.00;0.80;;;;;;;;;;6256373;28;20278;-66
2023/08/07 07:13:01;;;;;;;2.50;1.03;;;;;;;;;;6254292;28;20198;-65
2023/08/07 07:16:02;;;;;;;1.10;0.80;;;;;;;;;;6254306;28;20209;-66
2023/08/07 07:19:03;;;;;;;2.17;0.90;;;;;;;;;;6254045;28;20209;-66
2023/08/07 07:22:04;;;;;;;0.77;0.67;;;;;;;;;;6255035;28;20237;-66
2023/08/07 07:25:06;;;;;;;1.63;0.80;;;;;;;;;;6249724;28;20281;-66
2023/08/07 07:28:07;;;;;;;0.63;0.63;;;;;;;;;;6255111;28;20199;-66
2023/08/07 07:31:11;;;;;;;2.43;0.70;;;;;;;;;;6249088;28;20187;-66
2023/08/07 07:34:12;;;;;;;1.40;0.77;;;;;;;;;;6240126;28;20199;-66
2023/08/07 07:37:14;;;;;;;0.87;0.60;;;;;;;;;;6246898;28;20197;-66
2023/08/07 07:40:15;;;;;;;1.60;0.70;;;;;;;;;;6247714;28;20245;-66
2023/08/07 07:43:16;;;;;;;2.03;0.77;;;;;;;;;;6245291;28;20207;-66
2023/08/07 07:46:17;;;;;;;0.77;0.60;;;;;;;;;;6253788;28;20275;-66
2023/08/07 07:49:18;;;;;;;1.03;0.63;;;;;;;;;;6251835;28;20193;-66
2023/08/07 07:52:19;;;;;;;4.43;0.70;;;;;;;;;;6244875;28;20198;-66
2023/08/07 07:55:21;;;;;;;1.13;0.80;;;;;;;;;;6259181;28;20224;-66
2023/08/07 07:58:22;;;;;;;0.33;0.30;;;;;;;;;;6255074;28;20190;-66
2023/08/07 08:01:23;;;;;;;1.07;0.50;;;;;;;;;;6261141;28;20270;-66
2023/08/07 08:04:24;;;;;;;1.10;0.40;;;;;;;;;;6248461;28;20198;-66
2023/08/07 08:07:25;;;;;;;0.60;0.40;;;;;;;;;;6256905;28;20184;-66
2023/08/07 08:10:26;;;;;;;0.20;0.10;;;;;;;;;;6252814;28;20194;-66
2023/08/07 08:13:27;;;;;;;1.13;0.23;;;;;;;;;;6257466;28;20183;-65
2023/08/07 08:16:28;;;;;;;0.30;0.30;;;;;;;;;;6247545;28;20198;-65
2023/08/07 08:19:29;;;;;;;0.57;0.23;;;;;;;;;;6243392;28;20198;-65
2023/08/07 08:22:30;;;;;;;0.20;0.20;;;;;;;;;;6238630;28;20239;-64
2023/08/07 08:25:34;;;;;;;0.20;0.13;;;;;;;;;;6266480;28;20213;-64
2023/08/07 08:28:36;;;;;;;0.30;0.30;;;;;;;;;;6257036;28;20222;-64
2023/08/07 08:31:37;;;;;;;0.20;0.20;;;;;;;;;;6256672;28;20190;-68
2023/08/07 08:34:38;;;;;;;0.10;0.10;;;;;;;;;;6251961;28;20201;-66
2023/08/07 08:37:40;;;;;;;0.50;0.20;;;;;;;;;;6263680;28;20198;-66
2023/08/07 08:40:41;;;;;;;0.20;0.20;;;;;;;;;;6255643;28;20205;-66
2023/08/07 08:43:43;;;;;;;0.20;0.20;;;;;;;;;;6263026;28;20198;-66
2023/08/07 08:46:46;;;;;;;1.30;0.20;;;;;;;;;;6268006;28;20301;-67
2023/08/07 08:49:48;;;;;;;0.40;0.20;;;;;;;;;;6266467;28;20194;-62
2023/08/07 08:52:51;;;;;;;0.10;0.10;;;;;;;;;;6254585;28;20194;-62
2023/08/07 08:55:52;;;;;;;0.20;0.20;;;;;;;;;;6260510;28;20273;-62
2023/08/07 08:58:53;;;;;;;1.30;0.20;;;;;;;;;;6250900;28;20198;-62
2023/08/07 09:01:54;;;;;;;0.10;0.10;;;;;;;;;;6253172;28;20202;-62
2023/08/07 09:04:55;;;;;;;0.20;0.20;;;;;;;;;;6253014;28;20222;-62
2023/08/07 09:07:57;;;;;;;0.40;0.20;;;;;;;;;;6254024;28;20194;-62
2023/08/07 09:10:58;;;;;;;0.30;0.30;;;;;;;;;;6254307;28;20284;-62
2023/08/07 09:14:01;;;;;;;0.20;0.20;;;;;;;;;;6251003;28;20201;-62
2023/08/07 09:17:03;;;;;;;0.30;0.30;;;;;;;;;;6254605;28;20261;-62
2023/08/07 09:20:04;;;;;;;0.60;0.30;;;;;;;;;;6248141;28;20198;-62
2023/08/07 09:23:05;;;;;;;0.30;0.30;;;;;;;;;;6260860;28;20241;-62
2023/08/07 09:26:08;;;;;;;0.10;0.10;;;;;;;;;;6263132;28;20209;-67
2023/08/07 09:29:09;;;;;;;0.30;0.30;;;;;;;;;;6259672;28;20186;-62
2023/08/07 09:32:14;;;;;;;0.27;0.27;;;;;;;;;;6262522;28;20194;-67
2023/08/07 09:35:15;;;;;;;0.30;0.30;;;;;;;;;;6276931;28;20195;-66
2023/08/07 09:38:16;;;;;;;0.13;0.13;;;;;;;;;;6225638;23;20239;-62
2023/08/07 09:41:20;;;;;;;0.30;0.30;;;;;;;;;;6230641;28;20203;-62
2023/08/07 09:44:22;;;;;;;0.30;0.30;;;;;;;;;;6220288;28;21183;-62
2023/08/07 09:47:23;;;;;;;0.30;0.20;;;;;;;;;;6203307;28;20191;-62
2023/08/07 09:50:24;;;;;;;0.40;0.30;;;;;;;;;;6232454;28;20195;-63
2023/08/07 09:53:28;;;;;;;0.20;0.20;;;;;;;;;;6221907;28;20224;-63
2023/08/07 09:56:29;;;;;;;0.30;0.20;;;;;;;;;;6219242;28;20222;-62
2023/08/07 09:59:30;;;;;;;0.40;0.27;;;;;;;;;;6203148;28;20187;-62
2023/08/07 10:02:31;;;;;;;0.97;0.30;;;;;;;;;;6200758;28;20190;-62
2023/08/07 10:05:32;;;;;;;0.13;0.13;;;;;;;;;;6210917;28;20212;-62
2023/08/07 10:08:35;;;;;;;0.30;0.30;;;;;;;;;;6226499;28;20563;-62
2023/08/07 10:11:36;;;;;;;0.57;0.20;;;;;;;;;;6218664;28;20187;-65
2023/08/07 10:14:37;;;;;;;0.30;0.20;;;;;;;;;;6234954;28;20202;-61
2023/08/07 10:17:38;;;;;;;0.53;0.40;;;;;;;;;;6217145;28;20195;-61
2023/08/07 10:20:42;;;;;;;0.30;0.30;;;;;;;;;;6220726;28;20738;-62
2023/08/07 10:23:44;;;;;;;0.10;0.10;;;;;;;;;;6236915;28;20192;-62
2023/08/07 10:26:46;;;;;;;0.30;0.30;;;;;;;;;;6206872;28;20289;-62
2023/08/07 10:29:49;;;;;;;1.30;0.40;;;;;;;;;;6235124;28;20191;-62
2023/08/07 10:32:51;;;;;;;0.30;0.30;;;;;;;;;;6223049;28;20271;-62
2023/08/07 10:35:53;;;;;;;0.20;0.20;;;;;;;;;;6233865;28;20202;-62
2023/08/07 10:39:06;;;;;;;0.40;0.40;;;;;;;;;;6220634;28;20227;-62
2023/08/07 10:42:07;;;;;;;0.57;0.40;;;;;;;;;;6236959;28;20205;-62
2023/08/07 10:45:08;;;;;;;0.30;0.30;;;;;;;;;;6210777;28;20227;-62
2023/08/07 10:48:13;;;;;;;2.67;0.30;;;;;;;;;;6228264;28;20188;-62
2023/08/07 10:51:15;;;;;;;0.30;0.30;;;;;;;;;;6226573;28;20219;-62
2023/08/07 10:54:16;;;;;;;0.60;0.33;;;;;;;;;;6222453;28;20194;-62
2023/08/07 10:57:18;;;;;;;4.33;1.00;;;;;;;;;;6233612;28;20198;-62
2023/08/07 11:00:22;;;;;;;3.23;0.80;;;;;;;;;;6219414;28;20195;-62
2023/08/07 11:03:27;;;;;;;1.80;0.87;;;;;;;;;;6229432;28;20211;-62
2023/08/07 11:06:31;;;;;;;0.90;0.53;;;;;;;;;;6217859;28;20216;-62
2023/08/07 11:09:34;;;;;;;0.50;0.40;;;;;;;;;;6217920;28;20192;-62
2023/08/07 11:12:36;;;;;;;0.30;0.30;;;;;;;;;;6237472;28;20196;-62
2023/08/07 11:15:37;;;;;;;0.60;0.43;;;;;;;;;;6216826;28;20191;-63
2023/08/07 11:18:41;;;;;;;0.33;0.33;;;;;;;;;;6218500;28;20195;-63
2023/08/07 11:21:43;;;;;;;0.60;0.50;;;;;;;;;;6229110;28;20646;-62
2023/08/07 11:24:44;;;;;;;0.30;0.30;;;;;;;;;;6219892;28;20357;-64
2023/08/07 11:27:46;;;;;;;0.73;0.40;;;;;;;;;;6214877;28;20218;-62
2023/08/07 11:30:55;;;;;;;0.43;0.40;;;;;;;;;;6215480;28;20324;-68
2023/08/07 11:33:57;;;;;;;0.60;0.40;;;;;;;;;;6227364;28;20228;-66
2023/08/07 11:36:59;;;;;;;0.70;0.60;;;;;;;;;;6232784;28;20230;-67
2023/08/07 11:40:04;;;;;;;0.60;0.60;;;;;;;;;;6213539;28;20196;-67
2023/08/07 11:43:05;;;;;;;0.60;0.60;;;;;;;;;;6218626;28;20235;-71
2023/08/07 11:46:10;;;;;;;0.73;0.70;;;;;;;;;;6209173;28;20316;-66
2023/08/07 11:49:12;;;;;;;0.40;0.40;;;;;;;;;;6214475;28;20288;-68
2023/08/07 11:52:13;;;;;;;1.00;0.60;;;;;;;;;;6220774;28;20207;-65
2023/08/07 11:55:15;;;;;;;0.57;0.50;;;;;;;;;;6217868;28;20230;-66
2023/08/07 11:58:16;;;;;;;0.63;0.63;;;;;;;;;;6215777;28;20192;-66
2023/08/07 12:01:21;;;;;;;0.77;0.43;;;;;;;;;;6214053;28;20199;-66
2023/08/07 12:04:22;;;;;;;1.70;0.43;;;;;;;;;;6224033;28;20206;-66
2023/08/07 12:07:26;;;;;;;1.17;0.50;;;;;;;;;;6217989;28;20206;-66
2023/08/07 12:10:27;;;;;;;0.40;0.40;;;;;;;;;;6231239;28;20343;-65
2023/08/07 12:13:29;;;;;;;0.50;0.40;;;;;;;;;;6205072;28;20402;-67
2023/08/07 12:16:34;;;;;;;0.20;0.20;;;;;;;;;;6230701;28;20267;-66
2023/08/07 12:19:43;;;;;;;1.90;0.60;;;;;;;;;;6229857;28;20240;-67
2023/08/07 12:22:44;;;;;;;0.90;0.50;;;;;;;;;;6232613;28;20201;-67
2023/08/07 12:25:45;;;;;;;2.03;0.77;;;;;;;;;;6206032;28;20229;-67
2023/08/07 12:28:46;;;;;;;0.57;0.57;;;;;;;;;;6218324;28;20239;-67
2023/08/07 12:31:47;;;;;;;0.77;0.60;;;;;;;;;;6204822;28;20191;-67
2023/08/07 12:34:50;;;;;;;0.50;0.50;;;;;;;;;;6237227;28;20198;-67
2023/08/07 12:37:51;;;;;;;0.77;0.60;;;;;;;;;;6216486;28;20240;-67
2023/08/07 12:40:52;;;;;;;0.50;0.50;;;;;;;;;;6217880;28;20191;-67
2023/08/07 12:43:53;;;;;;;0.73;0.50;;;;;;;;;;6229183;28;20191;-67
2023/08/07 12:46:54;;;;;;;2.10;1.10;;;;;;;;;;6233935;28;20215;-67
2023/08/07 12:49:55;;;;;;;0.57;0.57;;;;;;;;;;6234374;28;20274;-67
2023/08/07 12:52:56;;;;;;;0.83;0.70;;;;;;;;;;6196975;28;20218;-67
2023/08/07 12:55:57;;;;;;;0.60;0.60;;;;;;;;;;6231407;28;20196;-67
2023/08/07 12:58:58;;;;;;;0.60;0.60;;;;;;;;;;6215895;28;20203;-67
2023/08/07 13:01:59;;;;;;;0.60;0.60;;;;;;;;;;6209293;28;20205;-67
2023/08/07 13:05:00;;;;;;;0.70;0.60;;;;;;;;;;6234681;28;20307;-67
2023/08/07 13:08:01;;;;;;;1.03;0.80;;;;;;;;;;6201554;28;20214;-67
2023/08/07 13:11:03;;;;;;;0.70;0.63;;;;;;;;;;6203332;28;20195;-67
2023/08/07 13:14:04;;;;;;;1.00;0.60;;;;;;;;;;6223198;28;20222;-67
2023/08/07 13:17:05;;;;;;;0.70;0.70;;;;;;;;;;6207827;28;20216;-67
2023/08/07 13:20:09;;;;;;;0.83;0.73;;;;;;;;;;6212529;28;20246;-67
2023/08/07 13:23:11;;;;;;;1.07;0.70;;;;;;;;;;6206698;28;20207;-67
2023/08/07 13:26:12;;;;;;;1.27;0.80;;;;;;;;;;6205750;28;20227;-67
2023/08/07 13:29:13;;;;;;;0.60;0.50;;;;;;;;;;6236670;28;20195;-67
2023/08/07 13:32:18;;;;;;;0.50;0.50;;;;;;;;;;6222567;28;20187;-67
2023/08/07 13:35:19;;;;;;;0.70;0.70;;;;;;;;;;6203001;28;20199;-67
2023/08/07 13:38:20;;;;;;;0.83;0.70;;;;;;;;;;6202893;28;20235;-67
2023/08/07 13:41:21;;;;;;;0.77;0.70;;;;;;;;;;6224266;28;20218;-67
2023/08/07 13:44:22;;;;;;;0.97;0.60;;;;;;;;;;6214224;28;20198;-66
2023/08/07 13:47:25;;;;;;;1.50;0.57;;;;;;;;;;6237012;28;20230;-68
2023/08/07 13:50:27;;;;;;;1.37;0.70;;;;;;;;;;6222396;28;20331;-68
2023/08/07 13:53:29;;;;;;;0.77;0.60;;;;;;;;;;6202041;28;20195;-67
2023/08/07 13:56:30;;;;;;;0.70;0.60;;;;;;;;;;6206120;28;20238;-65
2023/08/07 13:59:31;;;;;;;1.03;0.60;;;;;;;;;;6207190;28;20199;-66
2023/08/07 14:02:34;;;;;;;0.60;0.60;;;;;;;;;;6234471;28;20263;-64
2023/08/07 14:05:37;;;;;;;0.70;0.70;;;;;;;;;;6207216;28;20365;-68
2023/08/07 14:08:38;;;;;;;1.10;0.60;;;;;;;;;;6221282;28;20187;-68
2023/08/07 14:11:39;;;;;;;1.00;0.90;;;;;;;;;;6219293;28;20194;-68
2023/08/07 14:14:41;;;;;;;1.10;0.70;;;;;;;;;;6232396;28;20207;-67
2023/08/07 14:17:42;;;;;;;0.90;0.53;;;;;;;;;;6223090;28;20226;-67
2023/08/07 14:20:43;;;;;;;1.03;0.50;;;;;;;;;;6209479;28;20195;-67
2023/08/07 14:23:45;;;;;;;0.80;0.57;;;;;;;;;;6223374;28;20186;-68
2023/08/07 14:26:46;;;;;;;1.00;0.80;;;;;;;;;;6224228;28;20214;-67
2023/08/07 14:29:47;;;;;;;1.00;0.60;;;;;;;;;;6223709;28;20195;-67
2023/08/07 14:32:48;;;;;;;0.60;0.50;;;;;;;;;;6217148;28;20198;-68
2023/08/07 14:35:49;;;;;;;3.80;1.03;;;;;;;;;;6234032;28;20200;-68
2023/08/07 14:38:50;;;;;;;0.60;0.60;;;;;;;;;;6225090;28;20231;-68
2023/08/07 14:41:52;;;;;;;1.43;0.47;;;;;;;;;;6227404;28;20199;-68
2023/08/07 14:44:53;;;;;;;0.50;0.50;;;;;;;;;;6221482;28;20222;-67
2023/08/07 14:47:54;;;;;;;0.93;0.50;;;;;;;;;;6227982;28;20201;-68
2023/08/07 14:50:56;;;;;;;0.40;0.40;;;;;;;;;;6232602;28;20191;-67
2023/08/07 14:53:57;;;;;;;0.53;0.50;;;;;;;;;;6232927;28;20415;-67
2023/08/07 14:56:58;;;;;;;0.40;0.40;;;;;;;;;;6224138;28;20203;-68
2023/08/07 14:59:59;;;;;;;0.67;0.60;;;;;;;;;;6216641;28;20195;-67
2023/08/07 15:03:02;;;;;;;0.50;0.50;;;;;;;;;;6214521;28;20231;-67
2023/08/07 15:06:04;;;;;;;1.20;0.50;;;;;;;;;;6220827;28;20222;-67
2023/08/07 15:09:05;;;;;;;0.57;0.50;;;;;;;;;;6223819;28;20286;-67
2023/08/07 15:12:07;;;;;;;1.10;0.50;;;;;;;;;;6224932;28;20190;-67
2023/08/07 15:15:08;;;;;;;0.97;0.40;;;;;;;;;;6240645;28;20206;-68
2023/08/07 15:18:09;;;;;;;1.67;0.30;;;;;;;;;;6235456;28;20202;-68
2023/08/07 15:21:11;;;;;;;0.30;0.30;;;;;;;;;;6237651;28;20198;-68
2023/08/07 15:24:12;;;;;;;0.50;0.50;;;;;;;;;;6213500;28;20191;-69
2023/08/07 15:27:13;;;;;;;1.20;0.50;;;;;;;;;;6228592;28;20219;-68
2023/08/07 15:30:14;;;;;;;2.73;0.47;;;;;;;;;;6217325;28;20206;-69
2023/08/07 15:33:16;;;;;;;0.30;0.27;;;;;;;;;;6203048;28;20195;-68
2023/08/07 15:36:17;;;;;;;1.20;0.40;;;;;;;;;;6230890;28;20188;-69
2023/08/07 15:39:18;;;;;;;0.60;0.50;;;;;;;;;;6222605;28;20239;-68
2023/08/07 15:42:19;;;;;;;0.43;0.43;;;;;;;;;;6223571;28;20226;-68
2023/08/07 15:45:20;;;;;;;1.27;0.50;;;;;;;;;;6201567;28;20249;-68
2023/08/07 15:48:21;;;;;;;0.50;0.50;;;;;;;;;;6220337;28;20195;-68
2023/08/07 15:51:23;;;;;;;1.63;0.60;;;;;;;;;;6231469;28;20198;-68
2023/08/07 15:54:24;;;;;;;0.50;0.50;;;;;;;;;;6206644;28;20207;-68
2023/08/07 15:57:25;;;;;;;0.50;0.40;;;;;;;;;;6210031;28;20287;-65
2023/08/07 16:00:26;;;;;;;0.43;0.40;;;;;;;;;;6214063;28;20202;-65
2023/08/07 16:03:27;;;;;;;2.40;0.50;;;;;;;;;;6238202;28;20198;-68
2023/08/07 16:06:28;;;;;;;0.53;0.50;;;;;;;;;;6215480;28;20223;-67
2023/08/07 16:09:33;;;;;;;0.50;0.50;;;;;;;;;;6237447;28;20186;-67
2023/08/07 16:12:34;;;;;;;0.80;0.50;;;;;;;;;;6238699;28;20193;-68
2023/08/07 16:15:35;;;;;;;0.40;0.40;;;;;;;;;;6218765;28;20191;-67
2023/08/07 16:18:37;;;;;;;0.77;0.47;;;;;;;;;;6221194;28;20199;-67
2023/08/07 16:21:38;;;;;;;0.65;0.52;;;;;;;;;;6231559;28;20777;-67
2023/08/07 16:24:39;;;;;;;0.60;0.50;;;;;;;;;;6207467;28;20226;-66
2023/08/07 16:27:40;;;;;;;0.63;0.63;;;;;;;;;;6223855;28;20285;-69
2023/08/07 16:30:41;;;;;;;1.67;0.70;;;;;;;;;;6230618;28;20184;-67
2023/08/07 16:33:43;;;;;;;0.93;0.70;;;;;;;;;;6234552;28;20211;-66
2023/08/07 16:36:44;;;;;;;0.93;0.80;;;;;;;;;;6231161;28;20188;-67
2023/08/07 16:39:45;;;;;;;0.80;0.70;;;;;;;;;;6234095;28;20194;-66
2023/08/07 16:42:47;;;;;;;1.00;0.80;;;;;;;;;;6234922;28;20192;-67
2023/08/07 16:45:48;;;;;;;1.27;0.60;;;;;;;;;;6222031;28;20219;-68
2023/08/07 16:48:49;;;;;;;0.97;0.63;;;;;;;;;;6217560;28;20215;-67
2023/08/07 16:51:54;;;;;;;1.50;1.00;;;;;;;;;;6240594;28;20190;-67
2023/08/07 16:54:55;;;;;;;0.90;0.80;;;;;;;;;;6231105;28;20196;-68
2023/08/07 16:57:56;;;;;;;1.70;0.70;;;;;;;;;;6227225;28;20778;-67
2023/08/07 17:00:57;;;;;;;0.80;0.80;;;;;;;;;;6224037;28;20199;-68
2023/08/07 17:03:59;;;;;;;0.70;0.70;;;;;;;;;;6223487;28;20270;-68
2023/08/07 17:07:01;;;;;;;2.03;0.80;;;;;;;;;;6223807;28;20228;-71
2023/08/07 17:10:02;;;;;;;1.67;0.77;;;;;;;;;;6206950;28;20198;-67
2023/08/07 17:13:04;;;;;;;2.63;0.70;;;;;;;;;;6241378;28;20225;-67
2023/08/07 17:16:05;;;;;;;1.30;0.83;;;;;;;;;;6216510;28;20205;-68
2023/08/07 17:19:06;;;;;;;1.60;0.83;;;;;;;;;;6215717;28;20204;-67
2023/08/07 17:22:07;;;;;;;2.57;0.80;;;;;;;;;;6227120;28;20297;-67
2023/08/07 17:25:09;;;;;;;1.07;0.90;;;;;;;;;;6236568;28;20249;-66
2023/08/07 17:28:10;;;;;;;1.63;0.80;;;;;;;;;;6205205;28;20765;-70
2023/08/07 17:31:11;;;;;;;0.90;0.90;;;;;;;;;;6236332;28;20249;-69
2023/08/07 17:34:12;;;;;;;3.57;1.10;;;;;;;;;;6218315;28;20184;-67
2023/08/07 17:37:14;;;;;;;2.00;1.10;;;;;;;;;;6237307;28;20231;-68
2023/08/07 17:40:15;;;;;;;2.53;1.10;;;;;;;;;;6239007;28;20246;-67
2023/08/07 17:43:16;;;;;;;1.10;0.80;;;;;;;;;;6221349;28;20219;-67
2023/08/07 17:46:18;;;;;;;2.00;1.00;;;;;;;;;;6236835;28;20219;-68
2023/08/07 17:49:19;;;;;;;1.10;0.90;;;;;;;;;;6222368;28;20213;-68
2023/08/07 17:52:20;;;;;;;2.83;0.83;;;;;;;;;;6231526;28;20232;-68
2023/08/07 17:55:23;;;;;;;2.63;1.00;;;;;;;;;;6216702;28;20208;-68
2023/08/07 17:58:24;;;;;;;1.13;0.87;;;;;;;;;;6225065;28;20230;-67
2023/08/07 18:01:29;;;;;;;0.93;0.77;;;;;;;;;;6240773;28;20196;-67
2023/08/07 18:04:31;;;;;;;1.90;0.90;;;;;;;;;;6242695;28;20202;-66
2023/08/07 18:07:33;;;;;;;2.27;1.10;;;;;;;;;;6219468;28;20227;-69